Time;durP1;ratioP1;P1;durP2;ratioP2;P2;SDS_P1;SDS_P2;PMS_P1;PMS_P2;Temp;Humidity;BMP_temperature;BMP_pressure;BME280_temperature;BME280_humidity;BME280_pressure;Samples;Min_cycle;Max_cycle;Signal;HPM_P1;HPM_P2
2023/01/15 00:00:14;;;;;;;4.40;0.70;;;;;;;1.70;100.00;98562.72;5052166;28;20028;-84
2023/01/15 00:02:42;;;;;;;2.05;0.70;;;;;;;1.75;100.00;98558.88;5055195;28;20439;-84
2023/01/15 00:05:11;;;;;;;5.90;0.60;;;;;;;1.78;100.00;98551.63;5038579;28;20040;-80
2023/01/15 00:07:39;;;;;;;2.50;0.80;;;;;;;1.79;100.00;98555.88;5041940;28;20030;-80
2023/01/15 00:10:07;;;;;;;3.55;0.50;;;;;;;1.81;100.00;98556.56;5029314;28;20060;-85
2023/01/15 00:12:35;;;;;;;5.70;0.77;;;;;;;1.86;100.00;98537.91;5033089;28;20103;-84
2023/01/15 00:15:05;;;;;;;4.45;1.08;;;;;;;1.93;100.00;98535.56;5047913;28;20042;-84
2023/01/15 00:17:34;;;;;;;2.13;0.65;;;;;;;1.93;100.00;98523.38;5027097;28;20033;-84
2023/01/15 00:20:02;;;;;;;3.80;0.77;;;;;;;1.95;100.00;98518.03;5047314;28;20032;-79
2023/01/15 00:22:30;;;;;;;1.42;0.52;;;;;;;1.98;100.00;98521.19;5027537;28;20112;-80
2023/01/15 00:27:47;;;;;;;3.10;0.57;;;;;;;1.95;100.00;98534.50;5025693;28;20055;-85
2023/01/15 00:30:18;;;;;;;6.78;0.65;;;;;;;2.02;100.00;98532.19;5050750;28;20048;-84
2023/01/15 00:32:48;;;;;;;4.95;0.70;;;;;;;2.02;100.00;98555.63;5048574;28;20025;-85
2023/01/15 00:35:22;;;;;;;4.25;0.75;;;;;;;2.09;100.00;98569.75;5038934;28;20052;-85
2023/01/15 00:37:52;;;;;;;5.47;0.57;;;;;;;2.09;100.00;98561.94;5048484;28;20084;-84
2023/01/15 00:40:21;;;;;;;4.38;0.80;;;;;;;2.07;100.00;98558.63;5051161;28;20041;-84
2023/01/15 00:42:49;;;;;;;5.13;0.63;;;;;;;2.02;100.00;98547.81;5045222;28;20037;-84
2023/01/15 00:45:18;;;;;;;3.92;0.82;;;;;;;2.03;100.00;98543.41;5037324;28;20061;-84
2023/01/15 00:47:49;;;;;;;5.53;0.80;;;;;;;2.01;100.00;98545.34;5032627;28;20397;-84
2023/01/15 00:50:18;;;;;;;6.30;0.60;;;;;;;2.06;100.00;98540.53;5046965;28;20465;-84
2023/01/15 00:52:45;;;;;;;5.70;0.95;;;;;;;2.01;100.00;98538.31;5027953;28;20024;-84
2023/01/15 00:55:13;;;;;;;4.43;0.60;;;;;;;1.99;100.00;98532.44;5013045;28;20029;-84
2023/01/15 00:57:42;;;;;;;4.65;0.63;;;;;;;1.94;100.00;98534.63;5039175;28;20041;-84
2023/01/15 01:00:11;;;;;;;6.38;0.52;;;;;;;1.98;100.00;98515.16;5029636;28;20040;-84
2023/01/15 01:02:38;;;;;;;3.00;0.50;;;;;;;1.92;100.00;98510.47;5050964;28;20032;-84
2023/01/15 01:05:08;;;;;;;2.88;0.63;;;;;;;1.95;100.00;98507.59;5045520;28;20087;-85
2023/01/15 01:07:37;;;;;;;9.48;1.58;;;;;;;1.95;100.00;98502.41;5051963;28;20512;-85
2023/01/15 01:10:04;;;;;;;6.18;0.70;;;;;;;2.01;100.00;98501.03;5033932;28;20033;-84
2023/01/15 01:12:33;;;;;;;3.95;0.77;;;;;;;2.05;100.00;98497.19;5048547;28;20025;-85
2023/01/15 01:15:01;;;;;;;8.05;1.23;;;;;;;2.11;100.00;98496.63;5044865;28;20041;-85
2023/01/15 01:17:30;;;;;;;5.20;1.27;;;;;;;2.17;100.00;98495.25;5031967;28;20029;-84
2023/01/15 01:19:58;;;;;;;6.72;1.02;;;;;;;2.28;100.00;98489.09;5049705;28;20041;-84
2023/01/15 01:22:29;;;;;;;9.15;1.30;;;;;;;2.33;100.00;98494.69;5035231;28;20048;-84
2023/01/15 01:24:57;;;;;;;6.93;1.67;;;;;;;2.46;100.00;98491.78;5014721;28;20575;-84
2023/01/15 01:27:24;;;;;;;5.35;0.60;;;;;;;2.53;100.00;98479.00;5019410;28;20127;-84
2023/01/15 01:29:52;;;;;;;8.73;1.17;;;;;;;2.58;100.00;98490.66;5020299;28;20065;-83
2023/01/15 01:32:21;;;;;;;12.90;1.58;;;;;;;2.59;100.00;98487.09;5012509;28;20405;-84
2023/01/15 01:34:49;;;;;;;7.55;0.80;;;;;;;2.65;100.00;98484.88;4949966;28;20037;-84
2023/01/15 01:37:17;;;;;;;6.95;2.10;;;;;;;2.68;100.00;98490.63;5022470;28;20036;-84
2023/01/15 01:39:46;;;;;;;6.03;1.10;;;;;;;2.71;100.00;98487.75;5041716;28;20035;-84
2023/01/15 01:42:16;;;;;;;4.70;0.57;;;;;;;2.74;100.00;98486.63;5006042;28;20025;-84
2023/01/15 01:44:44;;;;;;;7.07;0.52;;;;;;;2.74;100.00;98486.63;5016418;28;20037;-84
2023/01/15 01:47:21;;;;;;;11.73;1.02;;;;;;;2.80;100.00;98487.84;5018522;28;20390;-83
2023/01/15 01:49:53;;;;;;;7.38;0.55;;;;;;;2.80;100.00;98486.06;5041783;28;20488;-84
2023/01/15 01:52:31;;;;;;;3.03;0.45;;;;;;;2.87;100.00;98491.53;5030625;28;20063;-84
2023/01/15 01:55:00;;;;;;;4.47;0.47;;;;;;;2.88;100.00;98484.53;5038901;28;21386;-84
2023/01/15 01:57:28;;;;;;;3.85;0.77;;;;;;;2.84;100.00;98492.66;5025037;28;20084;-84
2023/01/15 01:59:58;;;;;;;3.88;0.55;;;;;;;2.85;100.00;98481.22;5025918;28;20033;-84
2023/01/15 02:02:27;;;;;;;2.85;0.38;;;;;;;2.82;100.00;98484.13;5036273;28;20029;-84
2023/01/15 02:04:54;;;;;;;1.98;0.50;;;;;;;2.86;100.00;98482.06;5049966;28;20035;-83
2023/01/15 02:07:22;;;;;;;2.90;0.30;;;;;;;2.85;100.00;98472.59;5030826;28;20040;-83
2023/01/15 02:09:50;;;;;;;1.92;0.40;;;;;;;2.85;100.00;98459.56;5063796;28;20428;-84
2023/01/15 02:12:38;;;;;;;1.45;0.32;;;;;;;2.87;100.00;98457.59;5021054;28;20025;-84
2023/01/15 02:15:20;;;;;;;6.03;0.40;;;;;;;2.86;100.00;98476.84;5018006;28;20049;-84
2023/01/15 02:18:16;;;;;;;5.57;0.40;;;;;;;2.84;100.00;98469.16;5017701;28;20676;-84
2023/01/15 02:20:49;;;;;;;2.25;0.25;;;;;;;2.83;100.00;98472.75;5021158;28;20033;-84
2023/01/15 02:23:40;;;;;;;5.88;0.50;;;;;;;2.86;100.00;98482.06;5030855;28;20021;-84
2023/01/15 02:26:23;;;;;;;3.13;0.60;;;;;;;2.89;100.00;98480.94;5035562;28;20029;-84
2023/01/15 02:28:57;;;;;;;5.47;0.40;;;;;;;2.93;100.00;98490.97;5035470;28;20024;-85
2023/01/15 02:31:36;;;;;;;2.70;0.32;;;;;;;2.95;100.00;98478.59;5032725;28;21377;-84
2023/01/15 02:34:13;;;;;;;1.45;0.35;;;;;;;2.95;100.00;98480.38;5030103;28;20037;-85
2023/01/15 02:36:47;;;;;;;5.68;0.50;;;;;;;2.95;100.00;98493.41;5015555;28;20033;-84
2023/01/15 02:39:26;;;;;;;2.30;0.30;;;;;;;2.90;100.00;98475.59;5009375;28;20116;-84
2023/01/15 02:41:59;;;;;;;3.55;0.60;;;;;;;2.93;100.00;98464.06;5023786;28;20068;-83
2023/01/15 02:44:35;;;;;;;1.60;0.30;;;;;;;2.92;100.00;98463.22;5016821;28;21588;-84
2023/01/15 02:47:05;;;;;;;3.20;0.57;;;;;;;2.89;100.00;98460.06;4998014;28;20091;-83
2023/01/15 02:49:36;;;;;;;3.05;0.30;;;;;;;2.85;100.00;98467.38;5042426;28;20028;-84
2023/01/15 02:52:13;;;;;;;4.43;0.35;;;;;;;2.87;100.00;98469.84;5016833;28;20087;-84
2023/01/15 02:54:48;;;;;;;4.60;0.57;;;;;;;2.85;100.00;98468.19;4959151;28;20028;-83
2023/01/15 02:57:19;;;;;;;4.25;0.40;;;;;;;2.83;100.00;98464.91;5034609;28;20699;-83
2023/01/15 02:59:56;;;;;;;3.30;0.30;;;;;;;2.83;100.00;98466.69;5018262;28;20072;-83
2023/01/15 03:02:31;;;;;;;4.22;0.40;;;;;;;2.84;100.00;98461.34;4993152;28;20319;-84
2023/01/15 03:05:17;;;;;;;4.18;0.50;;;;;;;2.84;100.00;98458.72;5017575;28;20887;-84
2023/01/15 03:07:53;;;;;;;6.82;0.63;;;;;;;2.81;100.00;98453.78;5040866;28;20040;-84
2023/01/15 03:10:36;;;;;;;3.38;0.47;;;;;;;2.80;100.00;98467.00;5037415;28;20075;-84
2023/01/15 03:13:06;;;;;;;2.90;0.35;;;;;;;2.76;100.00;98463.84;5048906;28;20029;-84
2023/01/15 03:18:55;;;;;;;3.80;0.85;;;;;;;2.71;100.00;98473.88;5016805;28;20038;-83
2023/01/15 03:21:39;;;;;;;1.83;0.38;;;;;;;2.71;100.00;98471.25;5036310;28;20032;-84
2023/01/15 03:24:11;;;;;;;2.65;0.73;;;;;;;2.68;100.00;98471.53;5013760;28;20596;-84
2023/01/15 03:26:41;;;;;;;3.75;0.70;;;;;;;2.67;100.00;98465.53;5008429;28;20665;-84
2023/01/15 03:29:13;;;;;;;2.63;0.35;;;;;;;2.68;100.00;98466.31;5026473;28;20040;-84
2023/01/15 03:31:43;;;;;;;2.05;0.32;;;;;;;2.69;100.00;98476.63;5046503;28;20024;-84
2023/01/15 03:34:12;;;;;;;5.68;0.93;;;;;;;2.66;100.00;98468.28;5027406;28;20103;-84
2023/01/15 03:36:44;;;;;;;4.32;0.52;;;;;;;2.66;100.00;98470.88;5013792;28;20037;-84
2023/01/15 03:39:13;;;;;;;3.53;0.95;;;;;;;2.64;100.00;98478.03;5040979;28;20174;-83
2023/01/15 03:42:10;;;;;;;8.20;1.20;;;;;;;2.70;100.00;98467.84;5015107;28;20504;-83
2023/01/15 03:44:58;;;;;;;6.30;0.88;;;;;;;2.76;100.00;98465.59;5029285;28;20060;-83
2023/01/15 03:47:39;;;;;;;8.55;1.48;;;;;;;2.79;100.00;98471.38;5018961;28;20037;-83
2023/01/15 03:50:32;;;;;;;14.18;0.98;;;;;;;2.87;100.00;98464.63;5019892;28;20071;-84
2023/01/15 03:53:20;;;;;;;6.05;0.65;;;;;;;2.89;100.00;98473.94;5030018;28;20507;-84
2023/01/15 03:56:10;;;;;;;9.52;1.48;;;;;;;2.93;100.00;98482.31;5049033;28;20025;-83
2023/01/15 03:58:52;;;;;;;10.68;1.35;;;;;;;3.04;100.00;98476.91;5054396;28;20576;-84
2023/01/15 04:01:33;;;;;;;12.40;1.55;;;;;;;3.11;100.00;98469.31;5032256;28;20086;-84
2023/01/15 04:04:03;;;;;;;12.02;1.45;;;;;;;3.14;100.00;98461.19;5026420;28;20401;-80
2023/01/15 04:06:34;;;;;;;17.05;2.30;;;;;;;3.14;100.00;98455.97;5022678;28;20396;-84
2023/01/15 04:09:08;;;;;;;8.95;1.45;;;;;;;3.17;100.00;98468.72;5053722;28;20033;-84
2023/01/15 04:11:38;;;;;;;15.52;4.07;;;;;;;3.18;100.00;98456.50;5043994;28;20029;-83
2023/01/15 04:14:13;;;;;;;15.80;1.63;;;;;;;3.16;100.00;98451.44;5019533;28;20055;-84
2023/01/15 04:16:50;;;;;;;11.77;1.90;;;;;;;3.16;100.00;98461.88;5041188;28;20106;-83
2023/01/15 04:19:20;;;;;;;24.77;2.20;;;;;;;3.20;100.00;98458.00;5067283;28;20091;-84
2023/01/15 04:21:55;;;;;;;23.23;3.28;;;;;;;3.20;100.00;98458.00;5051684;28;20037;-83
2023/01/15 04:24:24;;;;;;;18.27;2.28;;;;;;;3.25;100.00;98457.56;5064554;28;20055;-83
2023/01/15 04:26:51;;;;;;;20.77;2.63;;;;;;;3.27;100.00;98463.47;5061313;28;20444;-83
2023/01/15 04:29:19;;;;;;;23.38;2.95;;;;;;;3.32;100.00;98468.25;5015431;28;20033;-84
2023/01/15 04:31:47;;;;;;;19.33;2.40;;;;;;;3.30;100.00;98470.16;5030262;28;20032;-82
2023/01/15 04:34:14;;;;;;;20.33;2.67;;;;;;;3.32;100.00;98461.25;5053261;28;20481;-79
2023/01/15 04:36:45;;;;;;;18.13;1.88;;;;;;;3.28;100.00;98465.09;5038683;28;20035;-79
2023/01/15 04:39:14;;;;;;;19.02;2.80;;;;;;;3.28;100.00;98457.25;5057501;28;20037;-84
2023/01/15 04:44:30;;;;;;;23.10;3.50;;;;;;;3.21;100.00;98474.50;5067122;28;20116;-84
2023/01/15 04:47:00;;;;;;;19.83;1.85;;;;;;;3.19;100.00;98465.97;5039454;28;20043;-83
2023/01/15 04:49:29;;;;;;;14.98;1.75;;;;;;;3.13;100.00;98467.38;5060645;28;20107;-84
2023/01/15 04:51:57;;;;;;;16.30;3.35;;;;;;;3.12;100.00;98467.53;5044604;28;20427;-83
2023/01/15 04:54:25;;;;;;;22.58;2.78;;;;;;;3.12;100.00;98467.53;5041720;28;20093;-83
2023/01/15 04:56:54;;;;;;;16.88;2.47;;;;;;;3.11;100.00;98458.88;5023435;28;20037;-84
2023/01/15 04:59:26;;;;;;;25.52;3.42;;;;;;;3.12;100.00;98465.75;5037319;28;20173;-84
2023/01/15 05:01:54;;;;;;;22.63;2.88;;;;;;;3.07;100.00;98463.56;4990460;28;20030;-83
2023/01/15 05:04:24;;;;;;;19.05;2.35;;;;;;;3.06;100.00;98472.34;5062822;28;20111;-84
2023/01/15 05:06:54;;;;;;;19.35;3.45;;;;;;;3.05;100.00;98467.28;5065403;28;20028;-83
2023/01/15 05:09:23;;;;;;;17.33;2.17;;;;;;;3.05;100.00;98468.13;5066659;28;20032;-84
2023/01/15 05:11:51;;;;;;;21.17;5.35;;;;;;;3.00;100.00;98465.09;5057105;28;20028;-83
2023/01/15 05:14:19;;;;;;;21.40;3.03;;;;;;;3.04;100.00;98463.03;5038762;28;20044;-84
2023/01/15 05:16:47;;;;;;;17.42;1.80;;;;;;;3.01;100.00;98466.75;5051381;28;20056;-84
2023/01/15 05:19:17;;;;;;;23.67;3.25;;;;;;;2.99;100.00;98473.91;5052966;28;20091;-83
2023/01/15 05:21:46;;;;;;;18.40;2.35;;;;;;;2.95;100.00;98468.16;5042513;28;20078;-83
2023/01/15 05:24:17;;;;;;;22.10;3.22;;;;;;;2.94;100.00;98473.53;5058562;28;20190;-83
2023/01/15 05:26:44;;;;;;;25.88;2.50;;;;;;;2.92;100.00;98475.44;5040919;28;20028;-83
2023/01/15 05:29:13;;;;;;;20.75;2.80;;;;;;;2.89;100.00;98470.50;5029909;28;20063;-84
2023/01/15 05:31:44;;;;;;;22.20;2.80;;;;;;;2.87;100.00;98478.47;5042651;28;20032;-83
2023/01/15 05:34:12;;;;;;;25.00;3.00;;;;;;;2.87;100.00;98478.47;5070698;28;20020;-83
2023/01/15 05:36:41;;;;;;;17.20;2.53;;;;;;;2.88;100.00;98479.31;5042925;28;20032;-83
2023/01/15 05:39:10;;;;;;;13.93;2.28;;;;;;;2.86;100.00;98482.06;5069295;28;20041;-83
2023/01/15 05:41:51;;;;;;;24.83;2.30;;;;;;;2.88;100.00;98481.94;5038438;28;20055;-84
2023/01/15 05:44:25;;;;;;;14.38;2.05;;;;;;;2.90;100.00;98482.63;5057889;28;20764;-83
2023/01/15 05:46:57;;;;;;;21.48;2.80;;;;;;;2.90;100.00;98480.81;5055730;28;20032;-83
2023/01/15 05:49:27;;;;;;;14.10;2.20;;;;;;;2.94;100.00;98476.13;5043238;28;20385;-83
2023/01/15 05:51:55;;;;;;;20.60;3.83;;;;;;;2.94;100.00;98478.75;5046113;28;20356;-83
2023/01/15 05:54:28;;;;;;;14.02;1.88;;;;;;;2.95;100.00;98489.03;5050992;28;20098;-83
2023/01/15 05:56:58;;;;;;;12.55;3.70;;;;;;;2.94;100.00;98481.34;5042417;28;20477;-83
2023/01/15 05:59:30;;;;;;;17.25;3.63;;;;;;;2.96;100.00;98484.66;5055818;28;20111;-83
2023/01/15 06:02:00;;;;;;;17.30;2.35;;;;;;;2.98;100.00;98487.91;5073504;28;20216;-83
2023/01/15 06:04:30;;;;;;;13.02;2.03;;;;;;;3.00;100.00;98493.81;5046871;28;20028;-83
2023/01/15 06:07:00;;;;;;;19.17;2.13;;;;;;;3.00;100.00;98491.22;5020523;28;20166;-83
2023/01/15 06:09:30;;;;;;;13.80;2.20;;;;;;;2.98;100.00;98483.53;5000765;28;20032;-83
2023/01/15 06:11:59;;;;;;;12.40;1.52;;;;;;;3.02;100.00;98491.06;5036987;28;20032;-84
2023/01/15 06:14:28;;;;;;;11.13;2.10;;;;;;;3.01;100.00;98487.63;5049240;28;20032;-83
2023/01/15 06:16:57;;;;;;;15.52;2.75;;;;;;;3.03;100.00;98500.53;5027141;28;20044;-83
2023/01/15 06:19:27;;;;;;;19.85;3.28;;;;;;;3.05;100.00;98512.50;5057944;28;20040;-83
2023/01/15 06:21:55;;;;;;;14.05;2.20;;;;;;;3.01;100.00;98511.13;5041015;28;20504;-84
2023/01/15 06:24:23;;;;;;;14.30;2.15;;;;;;;3.04;100.00;98518.66;5046223;28;20040;-83
2023/01/15 06:26:51;;;;;;;18.33;2.17;;;;;;;2.97;100.00;98518.44;5052428;28;20573;-85
2023/01/15 06:29:21;;;;;;;22.65;2.22;;;;;;;2.99;100.00;98531.34;5070619;28;20036;-83
2023/01/15 06:31:50;;;;;;;21.73;3.33;;;;;;;2.94;100.00;98530.94;5066024;28;20396;-83
2023/01/15 06:34:18;;;;;;;16.98;2.33;;;;;;;2.92;100.00;98540.69;5056007;28;20056;-83
2023/01/15 06:36:46;;;;;;;12.65;1.85;;;;;;;2.90;100.00;98543.44;5067137;28;20036;-83
2023/01/15 06:39:15;;;;;;;16.73;2.35;;;;;;;2.88;100.00;98547.16;5045324;28;20029;-83
2023/01/15 06:47:23;;;;;;;11.93;2.10;;;;;;;2.82;100.00;98548.56;5069521;28;20040;-83
2023/01/15 06:49:56;;;;;;;21.30;2.15;;;;;;;2.80;100.00;98556.50;5036356;28;20123;-83
2023/01/15 06:52:28;;;;;;;20.70;2.45;;;;;;;2.78;100.00;98548.00;5059902;28;20028;-83
2023/01/15 06:54:57;;;;;;;20.02;2.58;;;;;;;2.76;100.00;98551.72;5052594;28;20025;-83
2023/01/15 06:57:25;;;;;;;35.33;3.97;;;;;;;2.73;100.00;98548.44;5050524;28;20485;-84
2023/01/15 06:59:55;;;;;;;23.30;2.83;;;;;;;2.71;100.00;98549.53;5035857;28;20055;-83
2023/01/15 07:02:23;;;;;;;20.30;3.50;;;;;;;2.71;100.00;98562.56;5061468;28;20033;-83
2023/01/15 07:04:52;;;;;;;17.38;1.92;;;;;;;2.72;100.00;98556.41;5044056;28;20771;-84
2023/01/15 07:07:22;;;;;;;22.25;3.22;;;;;;;2.71;100.00;98563.41;5069454;28;20041;-84
2023/01/15 07:09:52;;;;;;;21.00;2.80;;;;;;;2.73;100.00;98577.13;5051405;28;20064;-84
2023/01/15 07:12:22;;;;;;;12.85;1.95;;;;;;;2.74;100.00;98580.53;5043311;28;20032;-83
2023/01/15 07:14:49;;;;;;;20.83;2.67;;;;;;;2.72;100.00;98574.66;5051870;28;20063;-83
2023/01/15 07:17:18;;;;;;;13.85;2.28;;;;;;;2.72;100.00;98582.50;5062991;28;20060;-83
2023/01/15 07:19:47;;;;;;;17.45;2.38;;;;;;;2.70;100.00;98576.59;5062483;28;20480;-82
2023/01/15 07:22:15;;;;;;;19.33;1.80;;;;;;;2.69;100.00;98577.56;5054546;28;20400;-83
2023/01/15 07:24:44;;;;;;;11.25;1.77;;;;;;;2.66;100.00;98570.00;5048554;28;20119;-83
2023/01/15 07:27:13;;;;;;;19.85;2.80;;;;;;;2.65;100.00;98574.41;5040665;28;20110;-83
2023/01/15 07:29:41;;;;;;;26.55;2.40;;;;;;;2.64;100.00;98580.59;5031924;28;20036;-83
2023/01/15 07:32:09;;;;;;;19.40;2.28;;;;;;;2.65;100.00;98586.59;5063022;28;20024;-84
2023/01/15 07:34:37;;;;;;;10.85;2.00;;;;;;;2.67;100.00;98582.91;5059805;28;20032;-83
2023/01/15 07:37:07;;;;;;;19.52;2.78;;;;;;;2.67;100.00;98580.31;5055102;28;20504;-84
2023/01/15 07:39:37;;;;;;;11.85;1.77;;;;;;;2.68;100.00;98581.94;5022377;28;20045;-83
2023/01/15 07:50:32;;;;;;;17.65;2.25;;;;;;;2.90;100.00;98592.22;5042556;28;20041;-83
2023/01/15 07:53:02;;;;;;;16.83;2.30;;;;;;;2.95;100.00;98595.19;5039273;28;20103;-83
2023/01/15 07:55:30;;;;;;;12.88;2.78;;;;;;;2.98;100.00;98600.97;5035632;28;20032;-79
2023/01/15 07:57:58;;;;;;;19.90;2.40;;;;;;;2.97;100.00;98594.13;5086003;28;20488;-79
2023/01/15 08:00:27;;;;;;;13.80;1.90;;;;;;;3.01;100.00;98594.63;5057246;28;20036;-83
2023/01/15 08:02:55;;;;;;;13.98;2.00;;;;;;;3.04;100.00;98604.00;5024021;28;20036;-83
2023/01/15 08:05:24;;;;;;;13.27;1.63;;;;;;;3.10;100.00;98598.19;5069003;28;20431;-83
2023/01/15 08:07:51;;;;;;;21.80;3.78;;;;;;;3.14;100.00;98599.56;5072461;28;20524;-83
2023/01/15 08:10:20;;;;;;;13.38;2.08;;;;;;;3.19;100.00;98594.75;5039430;28;20052;-83
2023/01/15 08:15:42;;;;;;;16.90;2.15;;;;;;;3.27;100.00;98591.41;5047995;28;20054;-83
2023/01/15 08:18:10;;;;;;;16.77;2.47;;;;;;;3.27;100.00;98586.19;5028181;28;20447;-83
2023/01/15 08:20:38;;;;;;;14.20;1.88;;;;;;;3.30;100.00;98585.91;5069038;28;20033;-83
2023/01/15 08:23:06;;;;;;;18.48;2.85;;;;;;;3.29;100.00;98589.50;5037958;28;20420;-83
2023/01/15 08:25:35;;;;;;;8.85;1.38;;;;;;;3.31;100.00;98584.91;5019842;28;20028;-83
2023/01/15 08:28:03;;;;;;;16.17;1.80;;;;;;;3.34;100.00;98604.72;5066772;28;20031;-83
2023/01/15 08:30:33;;;;;;;7.60;1.88;;;;;;;3.38;100.00;98600.03;5021205;28;20041;-83
2023/01/15 08:33:03;;;;;;;12.15;3.05;;;;;;;3.38;100.00;98605.28;5040005;28;20473;-83
2023/01/15 08:35:33;;;;;;;13.40;1.95;;;;;;;3.42;100.00;98606.63;5031809;28;20046;-83
2023/01/15 08:38:06;;;;;;;16.08;2.47;;;;;;;3.45;100.00;98604.53;5073257;28;20038;-83
2023/01/15 08:40:57;;;;;;;13.73;2.03;;;;;;;3.47;100.00;98601.78;5053319;28;20029;-83
2023/01/15 08:43:29;;;;;;;13.32;1.25;;;;;;;3.52;100.00;98610.00;5050549;28;20043;-83
2023/01/15 08:46:00;;;;;;;16.30;2.85;;;;;;;3.56;100.00;98616.59;5047699;28;20043;-83
2023/01/15 08:48:31;;;;;;;18.05;2.22;;;;;;;3.59;100.00;98623.31;5059417;28;20031;-83
2023/01/15 08:50:59;;;;;;;14.75;1.65;;;;;;;3.61;100.00;98626.59;5019912;28;20032;-83
2023/01/15 08:53:28;;;;;;;12.38;1.75;;;;;;;3.68;100.00;98635.50;5066792;28;20055;-83
2023/01/15 08:55:56;;;;;;;16.90;2.17;;;;;;;3.67;100.00;98631.25;5051344;28;20107;-79
2023/01/15 08:58:30;;;;;;;13.13;3.05;;;;;;;3.72;100.00;98626.44;5024569;28;20036;-79
2023/01/15 09:01:06;;;;;;;11.20;2.42;;;;;;;3.74;100.00;98634.13;5018457;28;20039;-79
2023/01/15 09:03:36;;;;;;;11.80;1.42;;;;;;;3.74;100.00;98635.91;5066252;28;20112;-78
2023/01/15 09:06:06;;;;;;;7.30;1.38;;;;;;;3.72;100.00;98630.81;5055726;28;20456;-84
2023/01/15 09:08:35;;;;;;;12.93;1.75;;;;;;;3.72;100.00;98642.09;5060486;28;20060;-84
2023/01/15 09:11:05;;;;;;;16.25;1.92;;;;;;;3.72;100.00;98642.09;5038468;28;20557;-85
2023/01/15 09:13:37;;;;;;;10.55;1.20;;;;;;;3.72;100.00;98643.88;5035032;28;20028;-84
2023/01/15 09:16:08;;;;;;;11.65;1.63;;;;;;;3.71;100.00;98652.69;5013850;28;20132;-84
2023/01/15 09:18:38;;;;;;;13.40;1.30;;;;;;;3.69;100.00;98659.84;4996665;28;20486;-84
2023/01/15 09:21:06;;;;;;;10.23;1.42;;;;;;;3.67;100.00;98653.94;5005079;28;20611;-84
2023/01/15 09:23:36;;;;;;;11.05;1.55;;;;;;;3.67;100.00;98665.22;5026138;28;20738;-84
2023/01/15 09:26:06;;;;;;;11.77;1.33;;;;;;;3.68;100.00;98666.06;5017145;28;20115;-84
2023/01/15 09:28:35;;;;;;;7.50;1.30;;;;;;;3.68;100.00;98669.47;5025976;28;20140;-84
2023/01/15 09:31:04;;;;;;;9.93;1.25;;;;;;;3.69;100.00;98670.31;5033052;28;20037;-83
2023/01/15 09:33:31;;;;;;;11.40;1.55;;;;;;;3.68;100.00;98682.53;5029511;28;20032;-84
2023/01/15 09:36:00;;;;;;;7.97;0.98;;;;;;;3.69;100.00;98685.97;5013859;28;20033;-83
2023/01/15 09:38:28;;;;;;;9.95;0.90;;;;;;;3.70;100.00;98693.69;5030028;28;20037;-83
2023/01/15 09:41:01;;;;;;;8.32;0.95;;;;;;;3.74;100.00;98696.00;5006519;28;20048;-83
2023/01/15 09:43:58;;;;;;;6.63;0.90;;;;;;;3.74;100.00;98689.00;4993791;28;20144;-83
2023/01/15 09:46:37;;;;;;;6.88;0.85;;;;;;;3.78;100.00;98694.75;5023942;28;20036;-83
2023/01/15 09:49:17;;;;;;;10.52;1.60;;;;;;;3.76;100.00;98692.28;5014468;28;20060;-84
2023/01/15 09:52:19;;;;;;;5.80;1.08;;;;;;;3.81;100.00;98703.13;5031472;28;20046;-83
2023/01/15 09:55:05;;;;;;;3.67;0.65;;;;;;;3.84;100.00;98704.63;5022503;28;20039;-83
2023/01/15 09:57:35;;;;;;;5.53;0.80;;;;;;;3.83;100.00;98702.97;5025748;28;20063;-83
2023/01/15 10:00:07;;;;;;;7.55;1.08;;;;;;;3.88;100.00;98707.78;5027259;28;20052;-83
2023/01/15 10:02:59;;;;;;;2.00;0.50;;;;;;;3.92;100.00;98703.91;5025769;28;20040;-84
2023/01/15 10:05:41;;;;;;;10.57;1.30;;;;;;;3.94;100.00;98696.75;5041402;28;20079;-79
2023/01/15 10:08:24;;;;;;;4.25;0.82;;;;;;;3.98;100.00;98705.97;5040201;28;20033;-79
2023/01/15 10:11:16;;;;;;;5.20;0.55;;;;;;;3.99;100.00;98710.22;5045285;28;20037;-84
2023/01/15 10:14:01;;;;;;;4.45;0.60;;;;;;;4.03;100.00;98713.38;5026147;28;20032;-83
2023/01/15 10:16:33;;;;;;;2.08;0.80;;;;;;;4.05;100.00;98714.03;5003033;28;20045;-83
2023/01/15 10:19:03;;;;;;;1.48;0.38;;;;;;;4.10;100.00;98711.81;5067763;28;20468;-83
2023/01/15 10:21:41;;;;;;;1.38;0.60;;;;;;;4.15;100.00;98721.81;5029173;28;20397;-83
2023/01/15 10:24:30;;;;;;;2.38;0.50;;;;;;;4.17;100.00;98715.47;5012222;28;20036;-83
2023/01/15 10:26:59;;;;;;;2.25;0.60;;;;;;;4.21;100.00;98716.00;5061287;28;20032;-83
2023/01/15 10:29:46;;;;;;;1.63;0.50;;;;;;;4.22;100.00;98718.47;5029702;28;20045;-83
2023/01/15 10:32:21;;;;;;;1.33;0.50;;;;;;;4.29;100.00;98717.88;5060663;28;20376;-84
2023/01/15 10:34:59;;;;;;;0.93;0.50;;;;;;;4.29;100.00;98726.56;5064949;28;20555;-84
2023/01/15 10:37:40;;;;;;;2.40;0.50;;;;;;;4.32;100.00;98728.91;5043334;28;20036;-83
2023/01/15 10:40:41;;;;;;;1.80;0.30;;;;;;;4.33;100.00;98735.75;5067460;28;20102;-83
2023/01/15 10:43:18;;;;;;;2.25;0.10;;;;;;;4.32;100.00;98736.75;5058122;28;20033;-83
2023/01/15 10:45:58;;;;;;;3.08;0.40;;;;;;;4.34;100.00;98750.50;5035426;28;20043;-83
2023/01/15 10:48:41;;;;;;;1.30;0.20;;;;;;;4.37;100.00;98754.59;5036920;28;20090;-83
2023/01/15 10:51:24;;;;;;;0.85;0.30;;;;;;;4.38;100.00;98747.59;5067151;28;20032;-84
2023/01/15 10:54:12;;;;;;;1.02;0.40;;;;;;;4.40;100.00;98750.88;5039936;28;20029;-83
2023/01/15 10:57:00;;;;;;;0.10;0.10;;;;;;;4.46;100.00;98758.97;5012850;28;20037;-83
2023/01/15 10:59:39;;;;;;;1.75;0.28;;;;;;;4.50;100.00;98753.44;5047808;28;20390;-84
2023/01/15 11:02:30;;;;;;;1.27;0.20;;;;;;;4.50;100.00;98754.28;5042589;28;20461;-83
2023/01/15 11:05:02;;;;;;;0.63;0.10;;;;;;;4.44;100.00;98755.66;5033702;28;20029;-83
2023/01/15 11:07:37;;;;;;;1.00;0.20;;;;;;;4.42;100.00;98748.94;5050612;28;20036;-83
2023/01/15 11:10:14;;;;;;;0.40;0.10;;;;;;;4.41;100.00;98755.94;5030297;28;20393;-79
2023/01/15 11:21:31;;;;;;;9.73;0.20;;;;;;;4.37;100.00;98756.41;5027751;28;20032;-83
2023/01/15 11:24:00;;;;;;;0.73;0.20;;;;;;;4.42;100.00;98743.72;5016016;28;20029;-84
2023/01/15 11:26:31;;;;;;;1.55;0.30;;;;;;;4.43;100.00;98751.41;5024502;28;20500;-83
2023/01/15 11:29:12;;;;;;;1.98;0.50;;;;;;;4.45;100.00;98759.94;5046213;28;20086;-83
2023/01/15 11:31:42;;;;;;;6.80;0.30;;;;;;;4.46;100.00;98752.91;5030349;28;21203;-82
2023/01/15 11:34:23;;;;;;;0.82;0.20;;;;;;;4.50;100.00;98746.41;5021075;28;20507;-83
2023/01/15 11:37:10;;;;;;;1.25;0.20;;;;;;;4.55;100.00;98753.81;5024877;28;20067;-83
2023/01/15 11:39:50;;;;;;;0.10;0.10;;;;;;;4.58;100.00;98748.28;5058084;28;20040;-83
2023/01/15 11:51:20;;;;;;;5.18;0.22;;;;;;;4.57;100.00;98746.66;5064467;28;20028;-83
2023/01/15 11:53:53;;;;;;;0.40;0.20;;;;;;;4.62;100.00;98748.84;5039100;28;20028;-84
2023/01/15 11:56:26;;;;;;;1.92;0.30;;;;;;;4.61;100.00;98753.22;5049495;28;20072;-83
2023/01/15 11:58:59;;;;;;;0.90;0.20;;;;;;;4.62;100.00;98743.59;5011340;28;20032;-84
2023/01/15 12:01:36;;;;;;;0.57;0.25;;;;;;;4.62;100.00;98746.22;5026681;28;20038;-84
2023/01/15 12:04:27;;;;;;;0.82;0.30;;;;;;;4.66;100.00;98739.72;5046528;28;20132;-83
2023/01/15 12:06:58;;;;;;;1.80;0.40;;;;;;;4.64;100.00;98736.41;5036554;28;20035;-83
2023/01/15 12:09:46;;;;;;;0.32;0.25;;;;;;;4.59;100.00;98732.44;5032635;28;20763;-84
2023/01/15 12:12:52;;;;;;;0.10;0.10;;;;;;;4.43;100.00;98738.31;5047950;28;20029;-84
2023/01/15 12:16:14;;;;;;;0.10;0.10;;;;;;;4.22;100.00;98730.75;5036972;28;20044;-84
2023/01/15 12:18:57;;;;;;;0.00;0.00;;;;;;;4.18;100.00;98727.59;4974924;28;20129;-83
2023/01/15 12:21:44;;;;;;;0.00;0.00;;;;;;;4.17;100.00;98725.13;5024386;28;20037;-84
2023/01/15 12:24:41;;;;;;;0.35;0.10;;;;;;;4.15;100.00;98725.28;5025685;28;20036;-84
2023/01/15 12:27:23;;;;;;;0.40;0.20;;;;;;;4.08;100.00;98727.63;5021340;28;20057;-84
2023/01/15 12:30:30;;;;;;;0.15;0.10;;;;;;;4.02;100.00;98740.47;5022347;28;20060;-84
2023/01/15 12:33:22;;;;;;;0.15;0.15;;;;;;;3.89;100.00;98731.16;5049521;28;20112;-84
2023/01/15 12:36:00;;;;;;;0.10;0.00;;;;;;;3.87;100.00;98740.13;5046541;28;20167;-84
2023/01/15 12:38:47;;;;;;;0.45;0.25;;;;;;;3.89;100.00;98731.16;5003299;28;20538;-84
2023/01/15 12:41:25;;;;;;;1.08;0.08;;;;;;;3.99;100.00;98718.06;5028867;28;20049;-84